Time;durP1;ratioP1;P1;durP2;ratioP2;P2;SDS_P1;SDS_P2;PMS_P1;PMS_P2;Temp;Humidity;BMP_temperature;BMP_pressure;BME280_temperature;BME280_humidity;BME280_pressure;Samples;Min_cycle;Max_cycle;Signal;HPM_P1;HPM_P2
2022/06/24 14:24:42;;;;;;;5.60;3.00;;;16.90;71.60;;;15.27;97.37;95208.94;5087909;27;20326;-51
2022/06/24 14:27:10;;;;;;;2.45;2.15;;;16.60;75.50;;;15.29;95.35;95220.16;5065746;28;20101;-53
2022/06/24 14:29:39;;;;;;;3.20;1.70;;;17.00;75.60;;;15.21;93.87;95223.56;5047643;28;20378;-52
2022/06/24 14:32:06;;;;;;;2.75;1.52;;;17.60;74.80;;;15.17;93.19;95231.44;5064963;28;20402;-55
2022/06/24 14:34:32;;;;;;;2.13;1.27;;;18.00;73.60;;;15.18;93.04;95237.59;5065291;28;20112;-47
2022/06/24 14:37:01;;;;;;;1.40;1.20;;;18.40;72.70;;;15.16;92.75;95237.88;5064996;28;20116;-55
2022/06/24 14:42:13;;;;;;;2.45;1.10;;;18.90;71.10;;;15.17;91.52;95252.09;5065258;28;20035;-52
2022/06/24 14:44:40;;;;;;;1.27;0.88;;;19.00;70.40;;;15.18;91.66;95249.09;5065021;28;20032;-48
2022/06/24 14:47:07;;;;;;;0.93;0.90;;;19.10;70.20;;;15.15;91.01;95255.06;5043607;28;20024;-52
2022/06/24 14:49:35;;;;;;;1.63;1.10;;;19.20;69.90;;;15.16;91.82;95256.66;5064667;28;20024;-52
2022/06/24 14:52:01;;;;;;;1.77;1.10;;;19.20;69.80;;;15.04;91.22;95254.50;5065057;28;20072;-52
2022/06/24 14:54:27;;;;;;;1.45;0.80;;;19.20;69.60;;;15.11;92.12;95247.94;5066471;28;20020;-53
2022/06/24 14:56:53;;;;;;;1.15;1.00;;;19.20;69.50;;;15.07;91.58;95242.38;5066513;28;20497;-52
2022/06/24 14:59:22;;;;;;;1.27;1.02;;;19.20;69.60;;;15.06;91.52;95243.47;5065146;28;20024;-54
2022/06/24 15:01:54;;;;;;;1.10;0.70;;;19.30;69.60;;;15.04;92.09;95245.66;5065699;28;20020;-52
2022/06/24 15:04:25;;;;;;;2.47;0.88;;;19.20;69.60;;;15.08;92.39;95245.88;5066032;28;20059;-54
2022/06/24 15:06:54;;;;;;;2.67;1.20;;;19.20;69.60;;;15.10;92.54;95251.69;5066170;28;20537;-54
2022/06/24 15:09:23;;;;;;;3.72;1.00;;;19.20;69.60;;;15.08;91.71;95240.50;5064265;28;20047;-49
2022/06/24 15:11:49;;;;;;;1.60;1.30;;;19.20;69.80;;;15.08;92.25;95241.28;5066136;28;20031;-55
2022/06/24 15:14:24;;;;;;;2.78;1.73;;;19.20;69.80;;;15.04;91.93;95237.59;5080551;28;20032;-54
2022/06/24 15:16:56;;;;;;;4.85;1.77;;;19.20;69.90;;;15.10;91.75;95222.97;5062853;28;20494;-54
2022/06/24 15:19:27;;;;;;;2.10;1.40;;;19.20;69.90;;;15.16;91.54;95221.78;5064092;28;20493;-53
2022/06/24 15:21:53;;;;;;;1.63;1.38;;;19.20;69.90;;;15.18;91.78;95224.97;5059041;28;20074;-50
2022/06/24 15:24:19;;;;;;;3.53;1.40;;;19.20;69.90;;;15.17;91.78;95226.06;5059200;28;20169;-53
2022/06/24 15:26:45;;;;;;;2.55;1.13;;;19.20;70.00;;;15.17;92.72;95222.59;5064670;28;20039;-53
2022/06/24 15:29:16;;;;;;;2.47;1.20;;;19.20;70.00;;;15.16;92.11;95223.66;5080966;28;20020;-46
2022/06/24 15:31:42;;;;;;;4.47;1.40;;;19.20;70.30;;;15.19;92.58;95226.53;5065992;28;20035;-45
2022/06/24 15:34:11;;;;;;;1.30;1.20;;;19.20;70.30;;;15.15;91.97;95216.72;5062886;28;20479;-46
2022/06/24 15:36:43;;;;;;;2.22;1.40;;;19.20;70.30;;;15.11;92.24;95221.91;5067881;28;20027;-45
2022/06/24 15:39:09;;;;;;;2.53;1.42;;;19.20;70.40;;;15.02;92.36;95216.47;5060867;28;20031;-46
2022/06/24 15:41:34;;;;;;;3.63;1.10;;;19.20;70.40;;;15.00;92.24;95215.94;4985571;28;20021;-49
2022/06/24 15:44:00;;;;;;;1.27;1.17;;;19.10;70.30;;;15.02;92.61;95210.31;5051686;28;20205;-48
2022/06/24 15:46:31;;;;;;;2.08;1.20;;;19.10;70.40;;;15.01;92.29;95206.84;5048956;28;20021;-45
2022/06/24 15:48:57;;;;;;;1.75;1.10;;;19.10;70.70;;;15.04;91.78;95208.91;5050982;28;20558;-48
2022/06/24 15:51:23;;;;;;;1.30;1.13;;;19.00;70.60;;;14.95;91.71;95216.09;5051422;28;20042;-45
2022/06/24 15:53:49;;;;;;;2.28;1.30;;;19.00;70.50;;;14.94;92.13;95211.78;5049696;28;20524;-46
2022/06/24 15:56:18;;;;;;;2.85;1.17;;;19.00;70.60;;;14.85;91.95;95210.13;5028634;28;20537;-49
2022/06/24 15:58:47;;;;;;;5.05;1.38;;;18.90;70.70;;;14.74;92.13;95217.59;5051059;28;20039;-45
2022/06/24 16:01:16;;;;;;;1.70;1.20;;;18.90;70.70;;;14.70;92.79;95209.34;5030599;28;20023;-48
2022/06/24 16:03:42;;;;;;;1.77;1.13;;;18.90;70.80;;;14.72;92.83;95217.88;5048697;28;20433;-47
2022/06/24 16:06:08;;;;;;;1.95;1.15;;;18.80;70.80;;;14.80;92.79;95208.34;5047150;28;20554;-48
2022/06/24 16:08:35;;;;;;;1.55;1.10;;;18.80;71.00;;;14.84;92.54;95209.34;5051132;28;20032;-50
2022/06/24 16:11:03;;;;;;;1.58;1.27;;;18.80;71.00;;;14.84;93.10;95225.41;5051049;28;20035;-50
2022/06/24 16:13:30;;;;;;;3.25;1.50;;;18.80;71.20;;;14.83;93.46;95231.09;5048575;28;20051;-45
2022/06/24 16:15:57;;;;;;;2.08;1.40;;;18.80;71.20;;;14.88;93.67;95229.06;5051293;28;20045;-46
2022/06/24 16:18:25;;;;;;;3.13;1.45;;;18.90;71.40;;;14.83;93.13;95237.25;5049818;28;20032;-45
2022/06/24 16:20:52;;;;;;;1.63;1.10;;;18.90;71.50;;;14.65;92.82;95248.88;5049699;28;20036;-45
2022/06/24 16:23:20;;;;;;;1.77;1.20;;;18.90;71.40;;;14.62;92.74;95252.16;5016682;28;20082;-46
2022/06/24 16:28:40;;;;;;;1.95;1.58;;;18.80;71.50;;;14.63;93.29;95251.84;5049384;28;20086;-44
2022/06/24 16:31:20;;;;;;;2.00;1.17;;;18.80;71.50;;;14.69;93.33;95242.59;5050696;28;20032;-45
2022/06/24 16:33:52;;;;;;;2.38;1.20;;;18.80;71.80;;;14.76;92.74;95239.50;5050881;28;20146;-45
2022/06/24 16:36:21;;;;;;;3.88;1.23;;;18.80;71.70;;;14.86;92.65;95235.84;5037279;28;20024;-46
2022/06/24 16:38:53;;;;;;;2.00;1.17;;;18.80;71.70;;;14.85;92.36;95228.88;5033370;28;20035;-46
2022/06/24 16:41:25;;;;;;;2.10;1.15;;;18.80;71.70;;;14.86;92.10;95230.50;5050983;28;20021;-45
2022/06/24 16:43:52;;;;;;;1.33;1.08;;;18.80;71.70;;;14.85;92.11;95232.34;5049203;28;20075;-45
2022/06/24 16:46:18;;;;;;;2.92;1.30;;;18.80;71.70;;;14.86;92.06;95242.00;5045290;28;20039;-45
2022/06/24 16:48:44;;;;;;;5.57;1.35;;;18.80;71.80;;;14.86;92.36;95260.00;5049299;28;20129;-48
2022/06/24 16:51:17;;;;;;;3.13;1.55;;;18.80;71.90;;;14.85;92.91;95251.13;5018114;28;20043;-45
2022/06/24 16:53:46;;;;;;;1.30;1.13;;;18.80;72.10;;;14.85;92.98;95251.13;5032641;28;20024;-54
2022/06/24 16:56:14;;;;;;;2.20;1.50;;;18.80;72.10;;;14.71;92.54;95237.75;5047750;28;20044;-51
2022/06/24 16:58:42;;;;;;;3.08;1.40;;;18.70;72.00;;;14.76;92.69;95242.19;5015480;28;20021;-47
2022/06/24 17:01:09;;;;;;;4.10;1.60;;;18.70;72.10;;;14.78;92.62;95250.75;5044972;28;20420;-46
2022/06/24 17:03:37;;;;;;;2.22;1.45;;;18.70;72.20;;;14.73;92.61;95259.69;5049161;28;20028;-46
2022/06/24 17:06:07;;;;;;;1.52;1.38;;;18.70;72.30;;;14.78;92.83;95264.16;5048296;28;20032;-46
2022/06/24 17:08:36;;;;;;;4.10;1.52;;;18.60;72.40;;;14.83;92.83;95252.53;5049686;28;20413;-45
2022/06/24 17:11:06;;;;;;;3.38;1.50;;;18.70;72.60;;;14.86;92.95;95252.75;5061657;28;20028;-51
2022/06/24 17:13:34;;;;;;;2.40;1.73;;;18.70;72.70;;;14.87;92.85;95254.31;5065731;28;20123;-48
2022/06/24 17:16:01;;;;;;;1.80;1.33;;;18.70;72.70;;;14.88;92.86;95255.09;5050013;28;20044;-44
2022/06/24 17:18:28;;;;;;;3.80;1.70;;;18.70;72.60;;;14.89;92.67;95254.03;5048821;28;20073;-48
2022/06/24 17:20:56;;;;;;;2.03;1.33;;;18.80;72.70;;;14.89;92.95;95254.03;5049497;28;20032;-49
2022/06/24 17:23:22;;;;;;;3.53;1.77;;;18.80;72.60;;;14.88;93.26;95255.91;5032159;28;20498;-46
2022/06/24 17:25:48;;;;;;;2.95;1.45;;;18.90;72.60;;;14.89;93.22;95260.19;5048408;28;20111;-44
2022/06/24 17:28:17;;;;;;;3.00;1.67;;;18.90;72.50;;;14.94;93.03;95260.06;5031642;28;20042;-47
2022/06/24 17:30:43;;;;;;;3.75;1.40;;;18.90;72.60;;;14.96;93.27;95267.81;5048171;28;20020;-50
2022/06/24 17:33:09;;;;;;;3.17;1.60;;;19.00;72.50;;;14.98;93.43;95262.97;5048587;28;20227;-44
2022/06/24 17:35:36;;;;;;;3.08;1.70;;;19.00;72.50;;;14.99;93.47;95273.38;5048154;28;20043;-51
2022/06/24 17:38:02;;;;;;;2.35;1.60;;;19.00;72.40;;;15.04;93.46;95275.16;5046722;28;20052;-52
2022/06/24 17:40:28;;;;;;;4.13;1.80;;;19.00;72.40;;;15.04;93.41;95269.78;5030641;28;20032;-48
2022/06/24 17:42:57;;;;;;;1.60;1.48;;;19.10;72.50;;;15.03;93.32;95282.41;5039167;28;20441;-52
2022/06/24 17:45:29;;;;;;;3.50;1.80;;;19.10;72.50;;;15.04;93.21;95278.66;5049768;28;20040;-48
2022/06/24 17:48:00;;;;;;;3.20;2.60;;;19.10;72.50;;;15.09;93.34;95275.06;5029196;28;20027;-44
2022/06/24 17:50:26;;;;;;;5.40;2.03;;;19.10;72.60;;;15.13;93.17;95267.19;5044948;28;20020;-49
2022/06/24 17:52:55;;;;;;;1.88;1.63;;;19.10;72.60;;;15.18;93.01;95251.00;5048071;28;20468;-45
2022/06/24 17:55:21;;;;;;;3.72;1.30;;;19.20;72.50;;;15.22;92.66;95241.25;5035806;28;20123;-46
2022/06/24 17:57:47;;;;;;;1.67;1.20;;;19.30;72.40;;;15.26;92.14;95255.63;5048078;28;20077;-46
2022/06/24 18:00:17;;;;;;;5.13;1.30;;;19.40;72.20;;;15.27;92.27;95259.94;5047636;28;20024;-47
2022/06/24 18:02:46;;;;;;;1.92;1.25;;;19.40;72.20;;;15.28;92.22;95275.72;5061713;28;20052;-50
2022/06/24 18:05:15;;;;;;;3.70;1.58;;;19.40;72.10;;;15.34;92.31;95276.41;5049290;28;20483;-44
2022/06/24 18:07:42;;;;;;;3.88;1.30;;;19.50;72.10;;;15.40;92.23;95279.78;5047444;28;20028;-48
2022/06/24 18:10:08;;;;;;;6.20;1.40;;;19.50;72.10;;;15.39;92.27;95283.56;4998603;28;21530;-44
2022/06/24 18:12:35;;;;;;;2.45;1.38;;;19.60;72.10;;;15.30;91.54;95286.16;5044642;28;20029;-46
2022/06/24 18:15:00;;;;;;;1.20;1.10;;;19.50;72.00;;;15.33;91.68;95279.41;5029297;28;20116;-46
2022/06/24 18:17:26;;;;;;;2.05;1.58;;;19.50;72.00;;;15.29;91.35;95279.19;5029253;28;20104;-47
2022/06/24 18:20:01;;;;;;;1.10;1.00;;;19.50;72.00;;;15.33;91.71;95280.19;5011174;28;20028;-46
2022/06/24 18:22:27;;;;;;;1.20;1.10;;;19.50;72.10;;;15.32;91.27;95272.44;5010218;28;20035;-47
2022/06/24 18:24:53;;;;;;;1.65;1.02;;;19.50;71.90;;;15.29;91.11;95273.81;5029517;28;20033;-49
2022/06/24 18:27:22;;;;;;;1.90;1.38;;;19.50;71.70;;;15.27;90.76;95276.81;5044421;28;20383;-45
2022/06/24 18:29:57;;;;;;;2.05;1.45;;;19.50;71.70;;;15.28;90.89;95293.69;5028832;28;20024;-48
2022/06/24 18:32:23;;;;;;;3.15;1.20;;;19.40;71.70;;;15.23;90.94;95288.44;5044498;28;20063;-49
2022/06/24 18:34:49;;;;;;;1.30;1.20;;;19.30;71.70;;;15.18;91.02;95289.34;5011594;28;20028;-44
2022/06/24 18:37:22;;;;;;;5.63;1.20;;;19.30;71.70;;;15.13;91.06;95300.19;5027423;28;20048;-44
2022/06/24 18:39:48;;;;;;;2.78;1.20;;;19.30;71.90;;;15.12;91.30;95298.59;5028111;28;20502;-45
2022/06/24 18:42:14;;;;;;;2.47;1.20;;;19.20;71.80;;;14.97;90.59;95298.91;5027494;28;20033;-45
2022/06/24 18:44:40;;;;;;;4.10;1.00;;;19.10;71.80;;;15.02;90.70;95298.81;5027608;28;20025;-44
2022/06/24 18:47:06;;;;;;;4.88;1.15;;;19.10;72.70;;;15.01;90.99;95302.56;5028956;28;20088;-47
2022/06/24 18:49:32;;;;;;;3.53;1.20;;;19.00;71.90;;;14.96;90.59;95303.47;5043679;28;20115;-46
2022/06/24 18:51:59;;;;;;;1.52;1.17;;;19.00;72.00;;;14.96;90.91;95306.16;5030724;28;20104;-53
2022/06/24 18:54:26;;;;;;;1.60;1.05;;;19.00;72.10;;;14.95;91.05;95311.84;5029040;28;20029;-46
2022/06/24 18:56:55;;;;;;;2.83;1.20;;;19.00;72.10;;;14.90;90.84;95302.00;5011453;28;20053;-47
2022/06/24 18:59:23;;;;;;;2.80;1.35;;;18.90;72.10;;;14.90;90.80;95304.66;5010793;28;20060;-44
2022/06/24 19:01:52;;;;;;;1.50;1.40;;;18.90;72.20;;;14.90;90.81;95311.94;4995133;28;20035;-48
2022/06/24 19:04:24;;;;;;;3.60;1.48;;;18.90;72.20;;;14.88;90.69;95309.53;5028451;28;20025;-45
2022/06/24 19:06:56;;;;;;;3.17;1.42;;;18.90;72.30;;;14.85;91.21;95307.44;5027242;28;20028;-45
2022/06/24 19:09:24;;;;;;;2.05;1.25;;;18.80;72.20;;;14.81;91.26;95315.28;5008170;28;20517;-46
2022/06/24 19:11:50;;;;;;;2.65;1.52;;;18.80;72.10;;;14.78;91.67;95317.78;5015116;28;20411;-44
2022/06/24 19:14:19;;;;;;;3.50;1.60;;;18.80;72.10;;;14.76;92.07;95317.25;5031103;28;20086;-44
2022/06/24 19:16:48;;;;;;;3.05;1.83;;;18.80;72.20;;;14.73;91.65;95320.56;5032691;28;20031;-47
2022/06/24 19:19:14;;;;;;;6.53;1.58;;;18.80;72.30;;;14.69;91.74;95322.22;5031844;28;20025;-45
2022/06/24 19:21:42;;;;;;;3.20;1.90;;;18.70;72.20;;;14.63;91.61;95315.38;5032288;28;20028;-44
2022/06/24 19:24:11;;;;;;;4.80;2.00;;;18.70;72.30;;;14.56;91.75;95324.59;5047113;28;20044;-49
2022/06/24 19:26:41;;;;;;;8.25;2.22;;;18.60;72.30;;;14.51;91.84;95326.59;5031397;28;20059;-44
2022/06/24 19:29:09;;;;;;;2.88;1.80;;;18.60;72.50;;;14.47;92.43;95318.28;5031761;28;20499;-44
2022/06/24 19:31:36;;;;;;;8.18;2.08;;;18.50;72.50;;;14.42;93.01;95314.94;5032070;28;20039;-47
2022/06/24 19:34:02;;;;;;;5.80;1.90;;;18.50;72.50;;;14.42;92.77;95322.97;5031847;28;20043;-49
2022/06/24 19:36:29;;;;;;;1.98;1.77;;;18.40;72.60;;;14.38;92.63;95320.06;5029847;28;20050;-45
2022/06/24 19:38:59;;;;;;;6.75;1.98;;;18.40;72.60;;;14.33;92.65;95314.81;5030231;28;20024;-52
2022/06/24 19:41:26;;;;;;;3.88;1.85;;;18.30;72.50;;;14.25;92.78;95329.66;5032056;28;20024;-51
2022/06/24 19:43:52;;;;;;;7.07;2.20;;;18.30;72.50;;;14.19;92.32;95332.72;5014398;28;20128;-46
2022/06/24 19:46:20;;;;;;;5.80;2.20;;;18.20;72.50;;;14.12;92.55;95328.53;5030408;28;20032;-45
2022/06/24 19:48:49;;;;;;;3.20;2.10;;;18.10;72.50;;;14.05;92.73;95336.16;5030122;28;20033;-46
2022/06/24 19:51:15;;;;;;;2.40;2.20;;;18.10;72.60;;;14.00;92.54;95348.81;5030801;28;20017;-45
2022/06/24 19:53:44;;;;;;;5.28;2.65;;;18.00;72.60;;;13.92;93.36;95342.25;5031938;28;20037;-49
2022/06/24 19:56:10;;;;;;;5.95;2.50;;;17.90;72.80;;;13.84;93.70;95346.38;5028214;28;20131;-45
2022/06/24 19:58:39;;;;;;;6.40;2.70;;;17.80;72.80;;;13.81;93.29;95356.88;5029806;28;20033;-44
2022/06/24 20:01:05;;;;;;;9.15;4.95;;;17.80;72.90;;;13.76;93.40;95368.47;5031169;28;20054;-47
2022/06/24 20:06:23;;;;;;;6.25;2.72;;;17.70;73.20;;;13.66;94.11;95368.56;5030329;28;20031;-45
2022/06/24 20:08:52;;;;;;;2.53;2.33;;;17.60;73.20;;;13.62;93.74;95372.91;5012998;28;20426;-47
2022/06/24 20:14:07;;;;;;;6.35;2.72;;;17.60;73.30;;;13.52;94.75;95365.81;5031721;28;20383;-47
2022/06/24 20:16:34;;;;;;;9.30;2.53;;;17.50;73.30;;;13.49;94.62;95361.06;5031075;28;20383;-45
2022/06/24 20:19:00;;;;;;;21.02;3.65;;;17.50;73.40;;;13.43;94.26;95364.88;5013039;28;20079;-46
2022/06/24 20:21:28;;;;;;;4.97;3.05;;;17.40;73.30;;;13.38;95.53;95370.28;5031630;28;20057;-47
2022/06/24 20:24:02;;;;;;;7.78;3.15;;;17.40;73.60;;;13.37;95.34;95374.84;4997000;28;20048;-52
2022/06/24 20:26:31;;;;;;;4.70;3.03;;;17.30;73.60;;;13.35;95.30;95371.69;5014578;28;20442;-46
2022/06/24 20:28:57;;;;;;;10.23;3.22;;;17.30;73.60;;;13.31;94.87;95375.19;5029624;28;20487;-47
2022/06/24 20:31:25;;;;;;;8.88;3.00;;;17.30;73.60;;;13.24;94.92;95378.19;5046232;28;20115;-46
2022/06/24 20:33:54;;;;;;;9.32;3.35;;;17.20;73.60;;;13.16;95.45;95379.63;5011980;28;20037;-44
2022/06/24 20:36:26;;;;;;;5.78;3.17;;;17.20;73.50;;;13.11;95.46;95382.34;5013473;28;20125;-44
2022/06/24 20:38:52;;;;;;;5.32;3.00;;;17.20;73.70;;;13.10;95.13;95380.78;4995998;28;20028;-46
2022/06/24 20:41:21;;;;;;;3.22;2.63;;;17.10;73.60;;;13.07;95.43;95386.69;5013678;28;20032;-44
2022/06/24 20:43:47;;;;;;;4.88;2.70;;;17.10;73.90;;;13.06;95.92;95387.75;5030302;28;20039;-45
2022/06/24 20:46:19;;;;;;;7.80;3.00;;;17.00;74.00;;;13.04;95.63;95384.59;5030611;28;20021;-44
2022/06/24 20:48:47;;;;;;;6.13;3.10;;;17.00;74.10;;;13.04;95.99;95383.78;5011827;28;20040;-46
2022/06/24 20:51:16;;;;;;;7.03;3.28;;;17.00;74.10;;;13.00;96.54;95388.88;5046047;28;20087;-44
2022/06/24 20:53:45;;;;;;;8.27;3.45;;;17.00;74.20;;;13.02;96.54;95388.63;5039436;28;20021;-44
2022/06/24 20:56:16;;;;;;;6.13;3.00;;;16.90;74.30;;;12.98;96.33;95382.25;5025223;28;20028;-43
2022/06/24 20:58:42;;;;;;;8.02;3.70;;;16.90;74.30;;;12.95;96.61;95389.75;5031351;28;20519;-44
2022/06/24 21:01:10;;;;;;;8.27;3.72;;;16.90;74.30;;;12.96;97.03;95388.66;5031250;28;20103;-45
2022/06/24 21:03:36;;;;;;;7.30;3.35;;;16.90;74.50;;;12.95;96.90;95389.75;5031310;28;20108;-53
2022/06/24 21:06:01;;;;;;;8.07;3.67;;;16.90;74.50;;;12.98;97.46;95392.94;5046682;28;20521;-45
2022/06/24 21:08:27;;;;;;;6.72;3.15;;;16.80;74.50;;;12.98;97.76;95393.75;5029199;28;20387;-46
2022/06/24 21:10:53;;;;;;;8.93;3.47;;;16.80;74.70;;;12.99;97.10;95392.66;5046299;28;20043;-49
2022/06/24 21:13:22;;;;;;;7.55;3.55;;;16.80;74.70;;;12.93;96.11;95383.88;5031280;28;20069;-47
2022/06/24 21:15:48;;;;;;;5.38;3.08;;;16.80;74.70;;;12.87;96.28;95384.22;5030419;28;20045;-44
2022/06/24 21:18:14;;;;;;;5.70;3.30;;;16.80;74.60;;;12.84;96.23;95392.81;5030956;28;20067;-45
2022/06/24 21:20:40;;;;;;;11.13;3.88;;;16.80;74.60;;;12.79;96.44;95398.22;5028802;28;20037;-48
